Ellerbe, North Carolina
Current Conditions -  °F | °C
As of 3:56 AM on Wednesday 28 Jan 2015 (Local Time) from KHFF Reporting Station
Clear Clear  
Wind Chill: -6°   Ceiling: Unl
Heat Index: -3°   Visibility: 10mi
Dew Point: -10°   Wind: 6mph
Humidity: 56%   Direction: 360°N
Pressure: 30.1"   Gusts: NA
Location:  35.07°N, 79.76°W
Report Text: KHFF 280856Z AUTO 36005KT 10SM CLR M03/M10 A3010 RMK AO2 SLP198 T10281104
Loading
Personal Weather Stations






























Interactive Weather Map New forecast layout! Learn more

10-Day Weather Forecast

Advertisements
Track Severe Weather on mobile